Cambria, WI (53923)

12:59 PM CDT on July 25, 2016 (GMT -0500)
Sunset Point | | Change Station

Elev 889 ft 43.50 °N, 88.86 °W | Updated 1 minute ago

Mostly Cloudy
Mostly Cloudy
80.5 °F
Feels Like 83 °F
N
2.0
Wind Variable Wind from NNW
Gusts 3.0 mph

Today
High -- | Low -- °F
--% Chance of Precip.
Yesterday
High -- | Low -- °F
Precip. -- in
Pressure 30.03 in
Visibility 10.0 miles
Clouds Mostly Cloudy 3800 ft
Mostly Cloudy 4600 ft
Heat Index 83 °F
Dew Point 67 °F
Humidity 63%
Rainfall 0.00 in
Snow Depth Not available.
5:39 AM 8:26 PM
Waning Gibbous, 64% visible
METAR KUNU 251755Z AUTO 29006KT 10SM BKN038 BKN046 26/18 A3003 RMK AO2 T02610184 10265 20197
Pressure 30.03 in
Visibility 10.0 miles
Clouds Mostly Cloudy 3800 ft
Mostly Cloudy 4600 ft
Heat Index 83 °F
Dew Point 67 °F
Humidity 63%
Rainfall 0.00 in
Snow Depth Not available.
5:39 AM 8:26 PM
Waning Gibbous, 64% visible
METAR KUNU 251755Z AUTO 29006KT 10SM BKN038 BKN046 26/18 A3003 RMK AO2 T02610184 10265 20197

10-Day Weather Forecast

Almanac

Astronomy

Jul. 25, 2016 Rise Set
Actual Time
Civil Twilight
Nautical Twilight
Astronomical Twilight
Moon
Length of Visible Light
Length of Day
Tomorrow will be .
, % of the Moon is Illuminated

Today's Extremes

State Highs State Lows

Community

WunderPhotos

Upload Photos

1,927,364 photos uploaded!

WunderBlog® & News

Nearby

Air Quality

  Air Quality AQ Index Pollutant
Not available.

Snow Depth

Station Depth Elevation

Earthquake Activity

City Distance Mag. Time & Date
Minimum magnitude displayed is 2.5.

Coastal Water Temperatures

Place Temperature

Stations

Nearby Weather Stations

Station Location Temp. Windchill Dew Point Humidity Wind Precip. Elev Updated Type
                   

Watches & Warnings

There are currently no watches in effect.